sensor_id;sensor_type;location;lat;lon;timestamp;pressure;altitude;pressure_sealevel;temperature;humidity
39487;BME280;25173;50.430;18.926;2024-01-30T00:02:25;100014.94;;;5.96;56.78
39487;BME280;25173;50.430;18.926;2024-01-30T00:05:26;100015.13;;;5.94;56.78
39487;BME280;25173;50.430;18.926;2024-01-30T00:08:26;100009.72;;;5.94;56.84
39487;BME280;25173;50.430;18.926;2024-01-30T00:11:27;100015.75;;;5.90;56.59
39487;BME280;25173;50.430;18.926;2024-01-30T00:14:29;100007.97;;;5.86;56.88
39487;BME280;25173;50.430;18.926;2024-01-30T00:17:29;100010.69;;;5.86;56.85
39487;BME280;25173;50.430;18.926;2024-01-30T00:20:30;99999.84;;;5.86;56.72
39487;BME280;25173;50.430;18.926;2024-01-30T00:23:30;100007.13;;;5.86;56.77
39487;BME280;25173;50.430;18.926;2024-01-30T00:26:31;100007.81;;;5.88;56.71
39487;BME280;25173;50.430;18.926;2024-01-30T00:29:31;100008.81;;;5.87;56.84
39487;BME280;25173;50.430;18.926;2024-01-30T00:32:34;100001.31;;;5.82;56.81
39487;BME280;25173;50.430;18.926;2024-01-30T00:35:34;100002.94;;;5.77;56.71
39487;BME280;25173;50.430;18.926;2024-01-30T00:38:35;99994.19;;;5.75;56.89
39487;BME280;25173;50.430;18.926;2024-01-30T00:41:36;99993.38;;;5.81;56.87
39487;BME280;25173;50.430;18.926;2024-01-30T00:44:36;99991.72;;;5.80;56.86
39487;BME280;25173;50.430;18.926;2024-01-30T00:47:38;100001.50;;;5.81;56.86
39487;BME280;25173;50.430;18.926;2024-01-30T00:50:39;99996.28;;;5.79;56.67
39487;BME280;25173;50.430;18.926;2024-01-30T00:53:40;100001.69;;;5.79;56.94
39487;BME280;25173;50.430;18.926;2024-01-30T00:56:42;99998.59;;;5.82;56.90
39487;BME280;25173;50.430;18.926;2024-01-30T00:59:42;99994.88;;;5.83;56.74
39487;BME280;25173;50.430;18.926;2024-01-30T01:02:43;99985.47;;;5.79;56.95
39487;BME280;25173;50.430;18.926;2024-01-30T01:05:44;99986.31;;;5.80;56.85
39487;BME280;25173;50.430;18.926;2024-01-30T01:08:44;99985.25;;;5.74;56.95
39487;BME280;25173;50.430;18.926;2024-01-30T01:11:45;99977.59;;;5.78;56.86
39487;BME280;25173;50.430;18.926;2024-01-30T01:14:46;99973.41;;;5.75;56.89
39487;BME280;25173;50.430;18.926;2024-01-30T01:17:46;99970.69;;;5.75;56.69
39487;BME280;25173;50.430;18.926;2024-01-30T01:20:47;99963.59;;;5.74;56.91
39487;BME280;25173;50.430;18.926;2024-01-30T01:23:47;99971.53;;;5.76;56.90
39487;BME280;25173;50.430;18.926;2024-01-30T01:26:48;99967.53;;;5.72;56.95
39487;BME280;25173;50.430;18.926;2024-01-30T01:29:48;99966.66;;;5.65;57.13
39487;BME280;25173;50.430;18.926;2024-01-30T01:32:49;99966.03;;;5.63;57.01
39487;BME280;25173;50.430;18.926;2024-01-30T01:35:56;99968.28;;;5.59;57.19
39487;BME280;25173;50.430;18.926;2024-01-30T01:38:57;99962.88;;;5.59;57.17
39487;BME280;25173;50.430;18.926;2024-01-30T01:41:57;99959.16;;;5.60;57.23
39487;BME280;25173;50.430;18.926;2024-01-30T01:44:58;99949.38;;;5.59;57.31
39487;BME280;25173;50.430;18.926;2024-01-30T01:47:59;99955.44;;;5.61;57.22
39487;BME280;25173;50.430;18.926;2024-01-30T01:50:59;99956.03;;;5.63;57.25
39487;BME280;25173;50.430;18.926;2024-01-30T01:54:03;99962.50;;;5.62;57.26
39487;BME280;25173;50.430;18.926;2024-01-30T01:57:04;99948.56;;;5.65;57.29
39487;BME280;25173;50.430;18.926;2024-01-30T02:00:05;99953.16;;;5.65;57.18
39487;BME280;25173;50.430;18.926;2024-01-30T02:03:10;99942.09;;;5.60;57.35
39487;BME280;25173;50.430;18.926;2024-01-30T02:06:13;99950.41;;;5.58;57.31
39487;BME280;25173;50.430;18.926;2024-01-30T02:09:13;99950.38;;;5.52;57.27
39487;BME280;25173;50.430;18.926;2024-01-30T02:12:14;99954.28;;;5.49;57.62
39487;BME280;25173;50.430;18.926;2024-01-30T02:15:14;99950.13;;;5.46;57.60
39487;BME280;25173;50.430;18.926;2024-01-30T02:18:15;99941.00;;;5.47;57.70
39487;BME280;25173;50.430;18.926;2024-01-30T02:21:17;99949.94;;;5.48;57.66
39487;BME280;25173;50.430;18.926;2024-01-30T02:24:18;99944.13;;;5.51;57.96
39487;BME280;25173;50.430;18.926;2024-01-30T02:27:18;99947.06;;;5.56;57.98
39487;BME280;25173;50.430;18.926;2024-01-30T02:30:19;99948.13;;;5.55;57.59
39487;BME280;25173;50.430;18.926;2024-01-30T02:33:19;99946.25;;;5.56;57.75
39487;BME280;25173;50.430;18.926;2024-01-30T02:36:22;99943.28;;;5.51;57.59
39487;BME280;25173;50.430;18.926;2024-01-30T02:39:22;99950.75;;;5.48;57.68
39487;BME280;25173;50.430;18.926;2024-01-30T02:42:23;99944.53;;;5.48;57.76
39487;BME280;25173;50.430;18.926;2024-01-30T02:45:24;99946.16;;;5.49;57.83
39487;BME280;25173;50.430;18.926;2024-01-30T02:48:24;99949.53;;;5.51;57.82
39487;BME280;25173;50.430;18.926;2024-01-30T02:51:25;99938.34;;;5.54;57.62
39487;BME280;25173;50.430;18.926;2024-01-30T02:54:25;99940.19;;;5.54;57.67
39487;BME280;25173;50.430;18.926;2024-01-30T02:57:26;99941.66;;;5.56;57.67
39487;BME280;25173;50.430;18.926;2024-01-30T03:00:26;99938.94;;;5.56;57.76
39487;BME280;25173;50.430;18.926;2024-01-30T03:03:27;99948.13;;;5.55;57.69
39487;BME280;25173;50.430;18.926;2024-01-30T03:06:28;99939.34;;;5.53;57.38
39487;BME280;25173;50.430;18.926;2024-01-30T03:09:28;99945.97;;;5.51;57.74
39487;BME280;25173;50.430;18.926;2024-01-30T03:12:29;99947.84;;;5.50;57.69
39487;BME280;25173;50.430;18.926;2024-01-30T03:15:29;99951.00;;;5.54;57.70
39487;BME280;25173;50.430;18.926;2024-01-30T03:18:30;99948.69;;;5.51;57.67
39487;BME280;25173;50.430;18.926;2024-01-30T03:21:30;99940.16;;;5.47;57.64
39487;BME280;25173;50.430;18.926;2024-01-30T03:24:31;99942.84;;;5.47;57.57
39487;BME280;25173;50.430;18.926;2024-01-30T03:27:31;99935.59;;;5.47;57.80
39487;BME280;25173;50.430;18.926;2024-01-30T03:30:32;99926.00;;;5.45;57.66
39487;BME280;25173;50.430;18.926;2024-01-30T03:33:32;99932.44;;;5.44;57.82
39487;BME280;25173;50.430;18.926;2024-01-30T03:36:33;99928.69;;;5.45;57.62
39487;BME280;25173;50.430;18.926;2024-01-30T03:39:34;99932.63;;;5.42;57.68
39487;BME280;25173;50.430;18.926;2024-01-30T03:42:36;99934.09;;;5.45;57.92
39487;BME280;25173;50.430;18.926;2024-01-30T03:45:37;99935.78;;;5.46;57.66
39487;BME280;25173;50.430;18.926;2024-01-30T03:48:38;99936.81;;;5.45;57.57
39487;BME280;25173;50.430;18.926;2024-01-30T03:51:39;99933.06;;;5.46;57.58
39487;BME280;25173;50.430;18.926;2024-01-30T03:54:39;99931.22;;;5.46;57.61
39487;BME280;25173;50.430;18.926;2024-01-30T03:57:40;99932.81;;;5.41;57.58
39487;BME280;25173;50.430;18.926;2024-01-30T04:00:40;99928.47;;;5.40;57.71
39487;BME280;25173;50.430;18.926;2024-01-30T04:03:41;99932.81;;;5.41;57.61
39487;BME280;25173;50.430;18.926;2024-01-30T04:06:44;99926.97;;;5.37;57.69
39487;BME280;25173;50.430;18.926;2024-01-30T04:09:45;99924.47;;;5.36;57.82
39487;BME280;25173;50.430;18.926;2024-01-30T04:12:46;99926.16;;;5.37;57.69
39487;BME280;25173;50.430;18.926;2024-01-30T04:15:46;99923.63;;;5.35;57.67
39487;BME280;25173;50.430;18.926;2024-01-30T04:18:47;99918.00;;;5.30;57.71
39487;BME280;25173;50.430;18.926;2024-01-30T04:21:48;99923.16;;;5.25;57.82
39487;BME280;25173;50.430;18.926;2024-01-30T04:24:48;99917.75;;;5.25;57.75
39487;BME280;25173;50.430;18.926;2024-01-30T04:27:49;99914.41;;;5.23;57.78
39487;BME280;25173;50.430;18.926;2024-01-30T04:30:50;99918.59;;;5.26;57.95
39487;BME280;25173;50.430;18.926;2024-01-30T04:33:51;99918.59;;;5.26;57.83
39487;BME280;25173;50.430;18.926;2024-01-30T04:36:51;99922.34;;;5.25;57.91
39487;BME280;25173;50.430;18.926;2024-01-30T04:39:52;99923.75;;;5.21;57.85
39487;BME280;25173;50.430;18.926;2024-01-30T04:42:53;99927.09;;;5.23;57.94
39487;BME280;25173;50.430;18.926;2024-01-30T04:45:53;99933.13;;;5.25;57.81
39487;BME280;25173;50.430;18.926;2024-01-30T04:48:54;99937.69;;;5.24;57.75
39487;BME280;25173;50.430;18.926;2024-01-30T04:51:55;99945.63;;;5.26;57.78
39487;BME280;25173;50.430;18.926;2024-01-30T04:54:56;99936.06;;;5.30;57.67
39487;BME280;25173;50.430;18.926;2024-01-30T04:57:56;99926.28;;;5.29;57.58
39487;BME280;25173;50.430;18.926;2024-01-30T05:00:57;99932.91;;;5.26;57.69
39487;BME280;25173;50.430;18.926;2024-01-30T05:03:57;99931.28;;;5.25;57.70
39487;BME280;25173;50.430;18.926;2024-01-30T05:06:58;99930.22;;;5.26;57.59
39487;BME280;25173;50.430;18.926;2024-01-30T05:09:59;99929.59;;;5.24;57.57
39487;BME280;25173;50.430;18.926;2024-01-30T05:12:59;99935.63;;;5.26;57.63
39487;BME280;25173;50.430;18.926;2024-01-30T05:16:02;99935.03;;;5.31;57.57
39487;BME280;25173;50.430;18.926;2024-01-30T05:19:03;99930.88;;;5.28;57.50
39487;BME280;25173;50.430;18.926;2024-01-30T05:22:04;99938.13;;;5.28;57.54
39487;BME280;25173;50.430;18.926;2024-01-30T05:25:05;99937.28;;;5.27;57.41
39487;BME280;25173;50.430;18.926;2024-01-30T05:28:06;99937.94;;;5.29;57.41
39487;BME280;25173;50.430;18.926;2024-01-30T05:31:06;99939.22;;;5.33;57.34
39487;BME280;25173;50.430;18.926;2024-01-30T05:34:07;99931.69;;;5.29;57.21
39487;BME280;25173;50.430;18.926;2024-01-30T05:37:08;99931.47;;;5.24;57.24
39487;BME280;25173;50.430;18.926;2024-01-30T05:40:10;99943.09;;;5.24;57.32
39487;BME280;25173;50.430;18.926;2024-01-30T05:43:10;99933.13;;;5.25;57.21
39487;BME280;25173;50.430;18.926;2024-01-30T05:46:11;99948.75;;;5.29;57.39
39487;BME280;25173;50.430;18.926;2024-01-30T05:49:11;99937.34;;;5.34;57.03
39487;BME280;25173;50.430;18.926;2024-01-30T05:52:12;99934.22;;;5.30;56.98
39487;BME280;25173;50.430;18.926;2024-01-30T05:55:13;99933.00;;;5.33;57.24
39487;BME280;25173;50.430;18.926;2024-01-30T05:58:14;99931.31;;;5.32;56.99
39487;BME280;25173;50.430;18.926;2024-01-30T06:01:14;99931.13;;;5.33;57.13
39487;BME280;25173;50.430;18.926;2024-01-30T06:04:15;99941.72;;;5.35;57.00
39487;BME280;25173;50.430;18.926;2024-01-30T06:07:15;99936.94;;;5.37;57.01
39487;BME280;25173;50.430;18.926;2024-01-30T06:10:17;99943.19;;;5.37;57.02
39487;BME280;25173;50.430;18.926;2024-01-30T06:13:18;99935.75;;;5.39;56.81
39487;BME280;25173;50.430;18.926;2024-01-30T06:16:18;99940.88;;;5.34;56.74
39487;BME280;25173;50.430;18.926;2024-01-30T06:19:21;99932.78;;;5.34;56.89
39487;BME280;25173;50.430;18.926;2024-01-30T06:22:21;99935.69;;;5.33;56.87
39487;BME280;25173;50.430;18.926;2024-01-30T06:25:22;99935.09;;;5.37;56.97
39487;BME280;25173;50.430;18.926;2024-01-30T06:28:22;99938.44;;;5.39;56.65
39487;BME280;25173;50.430;18.926;2024-01-30T06:31:23;99947.38;;;5.40;56.91
39487;BME280;25173;50.430;18.926;2024-01-30T06:34:24;99935.31;;;5.42;56.69
39487;BME280;25173;50.430;18.926;2024-01-30T06:37:24;99940.72;;;5.42;56.62
39487;BME280;25173;50.430;18.926;2024-01-30T06:40:25;99938.47;;;5.46;56.92
39487;BME280;25173;50.430;18.926;2024-01-30T06:43:25;99943.94;;;5.53;56.59
39487;BME280;25173;50.430;18.926;2024-01-30T06:46:26;99935.84;;;5.59;56.56
39487;BME280;25173;50.430;18.926;2024-01-30T06:49:27;99939.63;;;5.65;56.44
39487;BME280;25173;50.430;18.926;2024-01-30T06:52:28;99943.63;;;5.69;56.61
39487;BME280;25173;50.430;18.926;2024-01-30T06:55:28;99936.97;;;5.71;56.25
39487;BME280;25173;50.430;18.926;2024-01-30T06:58:29;99939.47;;;5.73;56.26
39487;BME280;25173;50.430;18.926;2024-01-30T07:01:30;99940.31;;;5.73;56.08
39487;BME280;25173;50.430;18.926;2024-01-30T07:04:31;99942.38;;;5.71;56.19
39487;BME280;25173;50.430;18.926;2024-01-30T07:07:32;99940.94;;;5.75;56.29
39487;BME280;25173;50.430;18.926;2024-01-30T07:10:33;99938.47;;;5.80;56.26
39487;BME280;25173;50.430;18.926;2024-01-30T07:13:34;99937.66;;;5.86;56.07
39487;BME280;25173;50.430;18.926;2024-01-30T07:16:35;99951.06;;;5.95;56.13
39487;BME280;25173;50.430;18.926;2024-01-30T07:19:36;99931.97;;;6.03;56.05
39487;BME280;25173;50.430;18.926;2024-01-30T07:22:37;99942.19;;;6.07;55.84
39487;BME280;25173;50.430;18.926;2024-01-30T07:25:37;99945.75;;;6.14;55.71
39487;BME280;25173;50.430;18.926;2024-01-30T07:28:38;99952.03;;;6.21;55.76
39487;BME280;25173;50.430;18.926;2024-01-30T07:31:38;99949.16;;;6.30;55.56
39487;BME280;25173;50.430;18.926;2024-01-30T07:34:39;99950.41;;;6.34;55.60
39487;BME280;25173;50.430;18.926;2024-01-30T07:37:40;99943.75;;;6.36;55.63
39487;BME280;25173;50.430;18.926;2024-01-30T07:40:40;99953.78;;;6.42;55.46
39487;BME280;25173;50.430;18.926;2024-01-30T07:43:43;99945.88;;;6.54;55.39
39487;BME280;25173;50.430;18.926;2024-01-30T07:46:44;99953.41;;;6.58;55.13
39487;BME280;25173;50.430;18.926;2024-01-30T07:49:44;99949.88;;;6.65;55.06
39487;BME280;25173;50.430;18.926;2024-01-30T07:52:45;99953.00;;;6.75;55.02
39487;BME280;25173;50.430;18.926;2024-01-30T07:55:46;99950.94;;;6.77;54.83
39487;BME280;25173;50.430;18.926;2024-01-30T07:58:47;99952.63;;;6.84;54.75
39487;BME280;25173;50.430;18.926;2024-01-30T08:01:47;99970.16;;;6.95;54.66
39487;BME280;25173;50.430;18.926;2024-01-30T08:04:48;99961.81;;;6.96;54.37
39487;BME280;25173;50.430;18.926;2024-01-30T08:07:49;99953.91;;;6.95;54.36
39487;BME280;25173;50.430;18.926;2024-01-30T08:10:50;99959.72;;;6.98;54.44
39487;BME280;25173;50.430;18.926;2024-01-30T08:13:52;99962.84;;;7.02;54.36
39487;BME280;25173;50.430;18.926;2024-01-30T08:16:52;99948.47;;;7.01;54.29
39487;BME280;25173;50.430;18.926;2024-01-30T08:19:53;99964.94;;;7.13;54.25
39487;BME280;25173;50.430;18.926;2024-01-30T08:22:53;99960.59;;;7.25;54.17
39487;BME280;25173;50.430;18.926;2024-01-30T08:25:54;99955.56;;;7.29;53.72
39487;BME280;25173;50.430;18.926;2024-01-30T08:28:54;99950.59;;;7.26;53.76
39487;BME280;25173;50.430;18.926;2024-01-30T08:31:55;99964.72;;;7.28;53.87
39487;BME280;25173;50.430;18.926;2024-01-30T08:34:56;99961.63;;;7.31;53.80
39487;BME280;25173;50.430;18.926;2024-01-30T08:37:56;99963.88;;;7.34;53.57
39487;BME280;25173;50.430;18.926;2024-01-30T08:40:57;99961.41;;;7.39;53.58
39487;BME280;25173;50.430;18.926;2024-01-30T08:43:57;99959.53;;;7.46;53.73
39487;BME280;25173;50.430;18.926;2024-01-30T08:46:58;99965.56;;;7.55;53.25
39487;BME280;25173;50.430;18.926;2024-01-30T08:49:59;99972.22;;;7.65;53.42
39487;BME280;25173;50.430;18.926;2024-01-30T08:52:59;99963.03;;;7.73;53.16
39487;BME280;25173;50.430;18.926;2024-01-30T08:56:01;99961.78;;;7.75;52.96
39487;BME280;25173;50.430;18.926;2024-01-30T08:59:02;99964.69;;;7.80;53.18
39487;BME280;25173;50.430;18.926;2024-01-30T09:02:02;99960.91;;;7.88;53.04
39487;BME280;25173;50.430;18.926;2024-01-30T09:05:04;99954.63;;;7.94;52.64
39487;BME280;25173;50.430;18.926;2024-01-30T09:08:05;99954.63;;;8.07;52.72
39487;BME280;25173;50.430;18.926;2024-01-30T09:11:13;99952.03;;;8.19;52.58
39487;BME280;25173;50.430;18.926;2024-01-30T09:14:13;99950.34;;;8.25;52.07
39487;BME280;25173;50.430;18.926;2024-01-30T09:17:14;99952.44;;;8.36;51.95
39487;BME280;25173;50.430;18.926;2024-01-30T09:20:14;99959.50;;;8.43;52.17
39487;BME280;25173;50.430;18.926;2024-01-30T09:23:15;99948.59;;;8.50;52.00
39487;BME280;25173;50.430;18.926;2024-01-30T09:26:17;99956.25;;;8.60;51.81
39487;BME280;25173;50.430;18.926;2024-01-30T09:29:18;99956.84;;;8.68;51.64
39487;BME280;25173;50.430;18.926;2024-01-30T09:32:18;99953.09;;;8.69;51.08
39487;BME280;25173;50.430;18.926;2024-01-30T09:35:19;99948.09;;;8.66;51.14
39487;BME280;25173;50.430;18.926;2024-01-30T09:38:20;99948.69;;;8.68;51.29
39487;BME280;25173;50.430;18.926;2024-01-30T09:41:24;99935.84;;;8.82;51.34
39487;BME280;25173;50.430;18.926;2024-01-30T09:44:25;99932.44;;;8.93;51.08
39487;BME280;25173;50.430;18.926;2024-01-30T09:47:31;99938.69;;;9.00;50.66
39487;BME280;25173;50.430;18.926;2024-01-30T09:50:34;99933.66;;;9.04;50.73
39487;BME280;25173;50.430;18.926;2024-01-30T09:53:37;99923.16;;;9.07;50.45
39487;BME280;25173;50.430;18.926;2024-01-30T09:56:38;99927.81;;;9.00;50.30
39487;BME280;25173;50.430;18.926;2024-01-30T09:59:38;99930.31;;;9.02;50.30
39487;BME280;25173;50.430;18.926;2024-01-30T10:02:39;99933.25;;;9.00;50.03
39487;BME280;25173;50.430;18.926;2024-01-30T10:05:41;99925.31;;;8.99;49.90
39487;BME280;25173;50.430;18.926;2024-01-30T10:08:42;99927.44;;;8.97;49.63
39487;BME280;25173;50.430;18.926;2024-01-30T10:11:42;99924.09;;;8.94;50.07
39487;BME280;25173;50.430;18.926;2024-01-30T10:14:43;99930.31;;;9.02;49.90
39487;BME280;25173;50.430;18.926;2024-01-30T10:17:47;99923.56;;;9.11;49.83
39487;BME280;25173;50.430;18.926;2024-01-30T10:20:47;99920.38;;;9.14;50.02
39487;BME280;25173;50.430;18.926;2024-01-30T10:23:49;99918.63;;;9.26;50.24
39487;BME280;25173;50.430;18.926;2024-01-30T10:26:50;99910.75;;;9.36;50.07
39487;BME280;25173;50.430;18.926;2024-01-30T10:29:50;99901.72;;;9.42;49.91
39487;BME280;25173;50.430;18.926;2024-01-30T10:32:51;99901.88;;;9.47;49.47
39487;BME280;25173;50.430;18.926;2024-01-30T10:35:52;99906.44;;;9.53;49.29
39487;BME280;25173;50.430;18.926;2024-01-30T10:38:55;99898.41;;;9.58;49.40
39487;BME280;25173;50.430;18.926;2024-01-30T10:42:01;99902.13;;;9.64;47.12
39487;BME280;25173;50.430;18.926;2024-01-30T10:45:08;99895.63;;;9.65;48.98
39487;BME280;25173;50.430;18.926;2024-01-30T10:48:09;99892.91;;;9.65;46.86
39487;BME280;25173;50.430;18.926;2024-01-30T10:51:11;99898.53;;;9.70;49.35
39487;BME280;25173;50.430;18.926;2024-01-30T10:54:13;99880.88;;;9.72;48.66
39487;BME280;25173;50.430;18.926;2024-01-30T10:57:15;99875.63;;;9.78;48.67
39487;BME280;25173;50.430;18.926;2024-01-30T11:00:17;99878.47;;;9.83;48.61
39487;BME280;25173;50.430;18.926;2024-01-30T11:03:23;99873.88;;;9.83;48.17
39487;BME280;25173;50.430;18.926;2024-01-30T11:06:25;99881.66;;;9.80;48.19
39487;BME280;25173;50.430;18.926;2024-01-30T11:09:29;99879.69;;;9.87;48.43
39487;BME280;25173;50.430;18.926;2024-01-30T11:12:31;99879.59;;;9.93;48.28
39487;BME280;25173;50.430;18.926;2024-01-30T11:15:37;99880.34;;;10.00;46.44
39487;BME280;25173;50.430;18.926;2024-01-30T11:18:38;99874.91;;;10.00;48.02
39487;BME280;25173;50.430;18.926;2024-01-30T11:21:41;99868.09;;;10.09;48.12
39487;BME280;25173;50.430;18.926;2024-01-30T11:24:42;99873.16;;;10.24;48.11
39487;BME280;25173;50.430;18.926;2024-01-30T11:27:44;99866.47;;;10.38;47.78
39487;BME280;25173;50.430;18.926;2024-01-30T11:30:44;99864.41;;;10.52;47.93
39487;BME280;25173;50.430;18.926;2024-01-30T11:33:52;99846.81;;;10.66;47.08
39487;BME280;25173;50.430;18.926;2024-01-30T11:36:58;99857.00;;;10.82;47.46
39487;BME280;25173;50.430;18.926;2024-01-30T11:39:59;99841.75;;;10.93;46.98
39487;BME280;25173;50.430;18.926;2024-01-30T11:43:01;99837.63;;;11.02;47.08
39487;BME280;25173;50.430;18.926;2024-01-30T11:46:02;99835.81;;;11.19;47.03
39487;BME280;25173;50.430;18.926;2024-01-30T11:49:03;99844.84;;;11.32;46.47
39487;BME280;25173;50.430;18.926;2024-01-30T11:52:04;99824.81;;;11.38;46.25
39487;BME280;25173;50.430;18.926;2024-01-30T11:55:06;99814.81;;;11.43;46.13
39487;BME280;25173;50.430;18.926;2024-01-30T11:58:08;99823.59;;;11.57;46.27
39487;BME280;25173;50.430;18.926;2024-01-30T12:01:09;99823.81;;;11.67;45.75
39487;BME280;25173;50.430;18.926;2024-01-30T12:04:10;99810.25;;;11.72;45.92
39487;BME280;25173;50.430;18.926;2024-01-30T12:07:11;99810.41;;;11.77;45.49
39487;BME280;25173;50.430;18.926;2024-01-30T12:10:14;99803.50;;;11.86;45.38
39487;BME280;25173;50.430;18.926;2024-01-30T12:13:15;99801.44;;;11.93;45.21
39487;BME280;25173;50.430;18.926;2024-01-30T12:16:15;99793.63;;;11.97;45.02
39487;BME280;25173;50.430;18.926;2024-01-30T12:19:25;99807.81;;;12.11;44.84
39487;BME280;25173;50.430;18.926;2024-01-30T12:22:26;99796.69;;;12.29;45.09
39487;BME280;25173;50.430;18.926;2024-01-30T12:25:26;99785.22;;;12.43;45.18
39487;BME280;25173;50.430;18.926;2024-01-30T12:28:27;99783.66;;;12.64;44.78
39487;BME280;25173;50.430;18.926;2024-01-30T12:31:28;99784.63;;;12.75;44.28
39487;BME280;25173;50.430;18.926;2024-01-30T12:34:29;99770.81;;;12.81;44.16
39487;BME280;25173;50.430;18.926;2024-01-30T12:37:30;99778.69;;;12.95;43.98
39487;BME280;25173;50.430;18.926;2024-01-30T12:40:33;99764.25;;;12.99;43.81
39487;BME280;25173;50.430;18.926;2024-01-30T12:43:34;99776.19;;;13.10;44.10
39487;BME280;25173;50.430;18.926;2024-01-30T12:46:35;99769.19;;;13.19;43.87
39487;BME280;25173;50.430;18.926;2024-01-30T12:49:36;99767.69;;;13.28;43.99
39487;BME280;25173;50.430;18.926;2024-01-30T12:52:39;99761.34;;;13.44;43.94
39487;BME280;25173;50.430;18.926;2024-01-30T12:55:39;99764.78;;;13.56;43.65
39487;BME280;25173;50.430;18.926;2024-01-30T12:58:40;99764.94;;;13.67;43.43
39487;BME280;25173;50.430;18.926;2024-01-30T13:01:43;99767.53;;;13.78;43.05
39487;BME280;25173;50.430;18.926;2024-01-30T13:04:44;99770.94;;;13.85;42.62
39487;BME280;25173;50.430;18.926;2024-01-30T13:07:44;99765.16;;;13.87;42.44
39487;BME280;25173;50.430;18.926;2024-01-30T13:10:45;99762.88;;;13.79;42.05
39487;BME280;25173;50.430;18.926;2024-01-30T13:13:46;99770.00;;;13.80;42.18
39487;BME280;25173;50.430;18.926;2024-01-30T13:16:46;99764.66;;;13.90;42.03
39487;BME280;25173;50.430;18.926;2024-01-30T13:19:47;99766.13;;;13.97;42.15
39487;BME280;25173;50.430;18.926;2024-01-30T13:22:49;99763.63;;;13.96;41.76
39487;BME280;25173;50.430;18.926;2024-01-30T13:25:50;99764.41;;;13.91;41.65
39487;BME280;25173;50.430;18.926;2024-01-30T13:28:51;99772.94;;;13.95;41.99
39487;BME280;25173;50.430;18.926;2024-01-30T13:31:51;99768.28;;;13.95;41.57
39487;BME280;25173;50.430;18.926;2024-01-30T13:34:52;99771.91;;;14.01;41.69
39487;BME280;25173;50.430;18.926;2024-01-30T13:37:52;99764.97;;;13.93;41.54
39487;BME280;25173;50.430;18.926;2024-01-30T13:40:53;99765.16;;;13.87;41.22
39487;BME280;25173;50.430;18.926;2024-01-30T13:43:54;99760.28;;;13.89;41.25
39487;BME280;25173;50.430;18.926;2024-01-30T13:46:55;99761.16;;;13.94;41.20
39487;BME280;25173;50.430;18.926;2024-01-30T13:49:55;99755.38;;;13.91;41.35
39487;BME280;25173;50.430;18.926;2024-01-30T13:52:56;99749.94;;;13.96;41.49
39487;BME280;25173;50.430;18.926;2024-01-30T13:55:56;99747.06;;;14.08;41.38
39487;BME280;25173;50.430;18.926;2024-01-30T13:58:57;99745.81;;;14.20;41.46
39487;BME280;25173;50.430;18.926;2024-01-30T14:01:57;99744.81;;;14.31;41.13
39487;BME280;25173;50.430;18.926;2024-01-30T14:04:58;99749.78;;;14.34;41.19
39487;BME280;25173;50.430;18.926;2024-01-30T14:07:59;99740.50;;;14.35;40.80
39487;BME280;25173;50.430;18.926;2024-01-30T14:11:00;99753.03;;;14.31;40.78
39487;BME280;25173;50.430;18.926;2024-01-30T14:14:01;99749.19;;;14.27;41.12
39487;BME280;25173;50.430;18.926;2024-01-30T14:17:02;99748.59;;;14.25;40.76
39487;BME280;25173;50.430;18.926;2024-01-30T14:20:03;99744.19;;;14.24;41.10
39487;BME280;25173;50.430;18.926;2024-01-30T14:23:06;99747.72;;;14.20;41.02
39487;BME280;25173;50.430;18.926;2024-01-30T14:26:07;99753.63;;;14.07;40.93
39487;BME280;25173;50.430;18.926;2024-01-30T14:29:07;99753.84;;;14.00;41.15
39487;BME280;25173;50.430;18.926;2024-01-30T14:32:08;99747.53;;;13.99;41.28
39487;BME280;25173;50.430;18.926;2024-01-30T14:35:09;99746.00;;;13.87;40.66
39487;BME280;25173;50.430;18.926;2024-01-30T14:38:10;99742.09;;;13.78;40.94
39487;BME280;25173;50.430;18.926;2024-01-30T14:41:11;99748.50;;;13.67;41.01
39487;BME280;25173;50.430;18.926;2024-01-30T14:44:12;99725.19;;;13.42;41.00
39487;BME280;25173;50.430;18.926;2024-01-30T14:47:12;99738.19;;;13.30;41.30
39487;BME280;25173;50.430;18.926;2024-01-30T14:50:13;99739.53;;;13.11;41.16
39487;BME280;25173;50.430;18.926;2024-01-30T14:53:17;99732.19;;;12.95;41.61
39487;BME280;25173;50.430;18.926;2024-01-30T14:56:18;99735.09;;;12.88;41.88
39487;BME280;25173;50.430;18.926;2024-01-30T14:59:18;99733.19;;;12.89;41.87
39487;BME280;25173;50.430;18.926;2024-01-30T15:02:19;99734.69;;;12.79;41.90
39487;BME280;25173;50.430;18.926;2024-01-30T15:05:20;99732.03;;;12.68;41.94
39487;BME280;25173;50.430;18.926;2024-01-30T15:08:21;99730.69;;;12.54;42.02
39487;BME280;25173;50.430;18.926;2024-01-30T15:11:21;99733.59;;;12.30;42.08
39487;BME280;25173;50.430;18.926;2024-01-30T15:14:23;99727.19;;;12.08;42.32
39487;BME280;25173;50.430;18.926;2024-01-30T15:17:24;99725.88;;;11.82;42.45
39487;BME280;25173;50.430;18.926;2024-01-30T15:20:25;99722.16;;;11.60;42.79
39487;BME280;25173;50.430;18.926;2024-01-30T15:23:25;99733.34;;;11.47;43.09
39487;BME280;25173;50.430;18.926;2024-01-30T15:26:26;99730.75;;;11.28;43.16
39487;BME280;25173;50.430;18.926;2024-01-30T15:29:26;99733.66;;;11.10;43.32
39487;BME280;25173;50.430;18.926;2024-01-30T15:32:27;99735.19;;;10.95;43.58
39487;BME280;25173;50.430;18.926;2024-01-30T15:35:27;99735.91;;;10.78;43.78
39487;BME280;25173;50.430;18.926;2024-01-30T15:38:28;99735.09;;;10.66;43.83
39487;BME280;25173;50.430;18.926;2024-01-30T15:41:29;99734.00;;;10.56;44.13
39487;BME280;25173;50.430;18.926;2024-01-30T15:44:29;99738.59;;;10.43;44.23
39487;BME280;25173;50.430;18.926;2024-01-30T15:47:32;99742.72;;;10.34;44.46
39487;BME280;25173;50.430;18.926;2024-01-30T15:50:32;99744.00;;;10.20;44.29
39487;BME280;25173;50.430;18.926;2024-01-30T15:53:33;99735.53;;;10.10;44.63
39487;BME280;25173;50.430;18.926;2024-01-30T15:56:33;99731.94;;;9.98;44.96